createdAt,value
2019-03-25T00:02:05.029Z,23.70
2019-03-25T00:04:37.497Z,22.40
2019-03-25T00:07:09.884Z,23.67
2019-03-25T00:09:42.367Z,24.40
2019-03-25T00:12:14.750Z,25.57
2019-03-25T00:14:47.136Z,24.80
2019-03-25T00:17:19.528Z,26.23
2019-03-25T00:19:51.913Z,26.97
2019-03-25T00:22:24.282Z,27.20
2019-03-25T00:24:56.737Z,27.10
2019-03-25T00:27:29.092Z,28.00
2019-03-25T00:30:01.502Z,29.13
2019-03-25T00:32:33.984Z,29.10
2019-03-25T00:35:06.443Z,29.87
2019-03-25T00:37:38.856Z,29.50
2019-03-25T00:40:11.295Z,28.53
2019-03-25T00:42:43.710Z,27.27
2019-03-25T00:45:16.128Z,26.53
2019-03-25T00:47:48.616Z,26.43
2019-03-25T00:50:20.996Z,26.00
2019-03-25T00:52:53.384Z,25.43
2019-03-25T00:55:25.792Z,24.50
2019-03-25T00:57:58.190Z,22.90
2019-03-25T01:00:30.653Z,21.53
2019-03-25T01:03:03.029Z,19.30
2019-03-25T01:05:35.408Z,20.80
2019-03-25T01:08:07.835Z,20.60
2019-03-25T01:10:40.209Z,20.60
2019-03-25T01:13:12.617Z,22.50
2019-03-25T01:15:45.017Z,21.73
2019-03-25T01:18:17.600Z,21.87
2019-03-25T01:20:49.998Z,20.30
2019-03-25T01:23:22.403Z,21.17
2019-03-25T01:25:54.863Z,19.33
2019-03-25T01:28:27.261Z,19.30
2019-03-25T01:30:59.649Z,18.13
2019-03-25T01:33:32.040Z,19.40
2019-03-25T01:36:04.423Z,17.80
2019-03-25T01:38:36.832Z,17.70
2019-03-25T01:41:09.226Z,16.67
2019-03-25T01:43:41.647Z,17.20
2019-03-25T01:46:14.064Z,16.00
2019-03-25T01:48:46.473Z,15.10
2019-03-25T01:51:18.859Z,15.10
2019-03-25T01:53:51.278Z,15.17
2019-03-25T01:56:23.707Z,15.33
2019-03-25T01:58:56.135Z,14.00
2019-03-25T02:01:28.518Z,14.30
2019-03-25T02:04:01.199Z,14.43
2019-03-25T02:06:33.591Z,12.70
2019-03-25T02:09:07.878Z,12.80
2019-03-25T02:11:40.258Z,11.83
2019-03-25T02:14:12.712Z,11.90
2019-03-25T02:16:46.064Z,11.80
2019-03-25T02:19:18.448Z,11.10
2019-03-25T02:21:50.806Z,11.73
2019-03-25T02:24:23.242Z,10.53
2019-03-25T02:26:55.726Z,9.93
2019-03-25T02:29:28.119Z,10.37
2019-03-25T02:32:00.518Z,10.17
2019-03-25T02:34:32.916Z,8.60
2019-03-25T02:37:05.376Z,9.00
2019-03-25T02:39:37.807Z,9.13
2019-03-25T02:42:10.177Z,9.10
2019-03-25T02:44:42.589Z,8.23
2019-03-25T02:47:14.992Z,8.40
2019-03-25T02:49:47.373Z,8.00
2019-03-25T02:52:19.766Z,7.97
2019-03-25T02:54:52.133Z,7.13
2019-03-25T02:57:24.616Z,8.00
2019-03-25T02:59:56.993Z,7.50
2019-03-25T03:02:29.361Z,7.17
2019-03-25T03:05:01.740Z,7.33
2019-03-25T03:07:34.141Z,6.57
2019-03-25T03:10:07.272Z,7.43
2019-03-25T03:12:39.692Z,6.90
2019-03-25T03:15:12.067Z,6.77
2019-03-25T03:17:44.459Z,6.77
2019-03-25T03:20:16.816Z,6.90
2019-03-25T03:22:49.204Z,8.10
2019-03-25T03:25:21.589Z,6.27
2019-03-25T03:27:53.951Z,6.53
2019-03-25T03:30:26.350Z,5.90
2019-03-25T03:32:58.730Z,5.83
2019-03-25T03:35:31.086Z,6.10
2019-03-25T03:38:03.448Z,5.93
2019-03-25T03:40:35.883Z,6.57
2019-03-25T03:43:08.417Z,5.73
2019-03-25T03:45:40.784Z,6.63
2019-03-25T03:48:13.173Z,5.70
2019-03-25T03:50:45.860Z,5.77
2019-03-25T03:53:18.462Z,6.07
2019-03-25T03:55:52.513Z,6.20
2019-03-25T03:58:27.355Z,6.23
2019-03-25T04:00:59.733Z,6.27
2019-03-25T04:03:32.421Z,6.07
2019-03-25T04:06:04.782Z,5.30
2019-03-25T04:08:37.172Z,5.60
2019-03-25T04:11:09.615Z,5.90
2019-03-25T04:13:45.304Z,6.77
2019-03-25T04:16:17.807Z,6.37
2019-03-25T04:18:50.242Z,7.00
2019-03-25T04:21:22.628Z,6.77
2019-03-25T04:23:55.020Z,6.03
2019-03-25T04:26:29.299Z,5.63
2019-03-25T04:29:01.489Z,6.90
2019-03-25T04:31:33.871Z,6.83
2019-03-25T04:34:06.231Z,6.40
2019-03-25T04:36:38.631Z,6.60
2019-03-25T04:39:10.983Z,6.70
2019-03-25T04:41:43.374Z,6.30
2019-03-25T04:44:15.919Z,8.00
2019-03-25T04:46:48.293Z,6.50
2019-03-25T04:49:20.648Z,6.63
2019-03-25T04:51:53.033Z,6.43
2019-03-25T04:54:25.376Z,6.90
2019-03-25T04:56:57.772Z,7.30
2019-03-25T04:59:30.131Z,7.20
2019-03-25T05:02:02.526Z,7.10
2019-03-25T05:04:34.941Z,7.87
2019-03-25T05:07:07.304Z,7.37
2019-03-25T05:09:39.680Z,8.03
2019-03-25T05:12:12.172Z,7.60
2019-03-25T05:14:44.535Z,7.20
2019-03-25T05:17:17.991Z,6.60
2019-03-25T05:19:50.361Z,6.97
2019-03-25T05:22:22.762Z,6.90
2019-03-25T05:24:55.158Z,6.63
2019-03-25T05:27:27.565Z,7.10
2019-03-25T05:29:59.931Z,6.60
2019-03-25T05:32:32.325Z,7.37
2019-03-25T05:35:04.738Z,7.03
2019-03-25T05:37:37.106Z,7.13
2019-03-25T05:40:09.901Z,7.53
2019-03-25T05:42:42.499Z,6.57
2019-03-25T05:45:14.896Z,7.23
2019-03-25T05:47:47.289Z,7.80
2019-03-25T05:50:19.677Z,7.53
2019-03-25T05:52:53.020Z,7.90
2019-03-25T05:55:25.386Z,7.73
2019-03-25T05:57:58.086Z,6.93
2019-03-25T06:00:33.507Z,8.00
2019-03-25T06:03:05.897Z,8.20
2019-03-25T06:05:38.267Z,6.67
2019-03-25T06:08:10.692Z,7.77
2019-03-25T06:10:43.097Z,8.30
2019-03-25T06:13:15.610Z,10.40
2019-03-25T06:15:47.986Z,10.03
2019-03-25T06:18:20.592Z,9.17
2019-03-25T06:20:52.957Z,7.97
2019-03-25T06:23:25.449Z,8.10
2019-03-25T06:25:57.813Z,7.57
2019-03-25T06:28:30.209Z,7.50
2019-03-25T06:31:02.617Z,7.87
2019-03-25T06:33:36.220Z,7.60
2019-03-25T06:36:08.616Z,8.73
2019-03-25T06:38:41.022Z,8.00
2019-03-25T06:41:13.435Z,7.73
2019-03-25T06:43:45.923Z,7.23
2019-03-25T06:46:18.353Z,7.57
2019-03-25T06:48:50.774Z,6.97
2019-03-25T06:51:23.177Z,9.00
2019-03-25T06:53:55.581Z,8.40
2019-03-25T06:56:27.986Z,7.17
2019-03-25T06:59:00.366Z,8.10
2019-03-25T07:01:32.734Z,7.40
2019-03-25T07:04:05.300Z,8.07
2019-03-25T07:06:37.871Z,7.67
2019-03-25T07:09:10.550Z,7.50
2019-03-25T07:11:43.456Z,7.00
2019-03-25T07:14:15.871Z,8.20
2019-03-25T07:16:48.274Z,8.00
2019-03-25T07:19:20.674Z,7.60
2019-03-25T07:21:53.067Z,8.03
2019-03-25T07:24:25.471Z,8.00
2019-03-25T07:26:57.876Z,7.80
2019-03-25T07:29:31.313Z,9.00
2019-03-25T07:32:03.716Z,8.20
2019-03-25T07:34:36.142Z,7.40
2019-03-25T07:37:08.561Z,7.90
2019-03-25T07:39:40.943Z,9.10
2019-03-25T07:42:13.386Z,7.87
2019-03-25T07:44:45.790Z,7.70
2019-03-25T07:47:18.195Z,7.37
2019-03-25T07:49:50.554Z,7.50
2019-03-25T07:52:22.960Z,7.97
2019-03-25T07:54:55.372Z,7.93
2019-03-25T07:57:27.880Z,8.40
2019-03-25T08:00:00.396Z,7.47
2019-03-25T08:02:32.857Z,8.37
2019-03-25T08:05:05.584Z,9.37
2019-03-25T08:07:38.012Z,9.27
2019-03-25T08:10:10.874Z,8.50
2019-03-25T08:12:43.307Z,7.57
2019-03-25T08:15:15.694Z,8.00
2019-03-25T08:17:48.153Z,8.37
2019-03-25T08:20:20.556Z,9.47
2019-03-25T08:22:52.923Z,8.20
2019-03-25T08:25:26.463Z,8.20
2019-03-25T08:28:00.172Z,8.27
2019-03-25T08:30:34.136Z,8.07
2019-03-25T08:33:06.515Z,8.30
2019-03-25T08:35:38.905Z,8.20
2019-03-25T08:38:11.288Z,7.33
2019-03-25T08:40:43.695Z,8.07
2019-03-25T08:43:17.761Z,6.80
2019-03-25T08:45:50.236Z,7.73
2019-03-25T08:48:22.617Z,7.30
2019-03-25T08:50:55.053Z,7.40
2019-03-25T08:53:27.409Z,7.80
2019-03-25T08:55:59.808Z,6.20
2019-03-25T08:58:32.218Z,7.40
2019-03-25T09:01:04.586Z,7.23
2019-03-25T09:03:38.089Z,6.27
2019-03-25T09:06:10.533Z,6.33
2019-03-25T09:08:42.919Z,6.13
2019-03-25T09:11:15.346Z,6.20
2019-03-25T09:13:47.776Z,6.00
2019-03-25T09:16:20.165Z,6.33
2019-03-25T09:18:53.634Z,5.43
2019-03-25T09:21:26.010Z,5.70
2019-03-25T09:23:59.019Z,6.10
2019-03-25T09:26:31.370Z,5.77
2019-03-25T09:29:03.783Z,5.20
2019-03-25T09:31:37.176Z,5.83
2019-03-25T09:34:09.651Z,7.23
2019-03-25T09:36:42.149Z,6.00
2019-03-25T09:39:14.564Z,5.00
2019-03-25T09:41:46.967Z,5.33
2019-03-25T09:44:19.374Z,5.30
2019-03-25T09:46:51.749Z,5.20
2019-03-25T09:49:24.176Z,6.60
2019-03-25T09:51:56.654Z,6.00
2019-03-25T09:54:29.041Z,5.47
2019-03-25T09:57:01.403Z,6.90
2019-03-25T09:59:33.795Z,7.17
2019-03-25T10:02:06.181Z,6.90
2019-03-25T10:04:39.649Z,6.43
2019-03-25T10:07:28.258Z,7.00
2019-03-25T10:10:00.331Z,6.80
2019-03-25T10:12:32.778Z,7.13
2019-03-25T10:15:06.592Z,6.27
2019-03-25T10:17:39.002Z,6.83
2019-03-25T10:20:11.752Z,6.30
2019-03-25T10:22:44.137Z,7.20
2019-03-25T10:25:16.896Z,6.70
2019-03-25T10:27:49.261Z,7.60
2019-03-25T10:30:21.700Z,6.60
2019-03-25T10:32:54.146Z,6.30
2019-03-25T10:35:26.536Z,6.73
2019-03-25T10:37:58.914Z,6.87
2019-03-25T10:40:31.283Z,6.80
2019-03-25T10:43:03.663Z,6.40
2019-03-25T10:45:36.078Z,6.57
2019-03-25T10:48:08.478Z,6.53
2019-03-25T10:50:40.854Z,6.97
2019-03-25T10:53:13.698Z,7.00
2019-03-25T10:55:46.095Z,7.53
2019-03-25T10:58:18.463Z,6.70
2019-03-25T11:00:50.883Z,7.40
2019-03-25T11:03:23.282Z,7.70
2019-03-25T11:05:55.763Z,6.53
2019-03-25T11:08:28.175Z,7.30
2019-03-25T11:11:00.599Z,6.70
2019-03-25T11:13:33.008Z,7.07
2019-03-25T11:16:05.389Z,6.57
2019-03-25T11:18:37.790Z,6.40
2019-03-25T11:21:10.170Z,7.77
2019-03-25T11:23:42.607Z,7.57
2019-03-25T11:26:14.976Z,6.97
2019-03-25T11:28:47.360Z,7.57
2019-03-25T11:31:19.811Z,7.20
2019-03-25T11:33:52.165Z,6.63
2019-03-25T11:36:24.586Z,6.10
2019-03-25T11:38:57.282Z,6.23
2019-03-25T11:41:29.886Z,4.93
2019-03-25T11:44:02.277Z,4.80
2019-03-25T11:46:34.712Z,5.30
2019-03-25T11:49:07.166Z,4.50
2019-03-25T11:51:39.591Z,4.37
2019-03-25T11:54:11.959Z,4.80
2019-03-25T11:56:44.457Z,5.03
2019-03-25T11:59:18.878Z,4.90
2019-03-25T12:01:50.937Z,4.90
2019-03-25T12:04:23.378Z,4.90
2019-03-25T12:06:55.786Z,4.80
2019-03-25T12:09:28.174Z,4.90
2019-03-25T12:12:00.676Z,4.80
2019-03-25T12:14:33.154Z,5.33
2019-03-25T12:17:05.636Z,4.70
2019-03-25T12:19:38.046Z,5.53
2019-03-25T12:22:10.415Z,4.20
2019-03-25T12:24:42.800Z,3.87
2019-03-25T12:27:15.425Z,3.87
2019-03-25T12:29:47.766Z,3.90
2019-03-25T12:32:20.164Z,3.70
2019-03-25T12:34:52.550Z,2.97
2019-03-25T12:37:24.973Z,3.00
2019-03-25T12:39:57.390Z,2.53
2019-03-25T12:42:29.844Z,2.50
2019-03-25T12:45:02.186Z,2.90
2019-03-25T12:47:35.626Z,2.90
2019-03-25T12:50:09.368Z,3.37
2019-03-25T12:52:42.019Z,3.55
2019-03-25T12:55:14.553Z,3.27
2019-03-25T12:57:46.969Z,2.33
2019-03-25T13:00:40.370Z,2.20
2019-03-25T13:03:13.038Z,2.40
2019-03-25T13:05:45.434Z,2.63
2019-03-25T13:08:17.849Z,2.50
2019-03-25T13:10:50.477Z,2.87
2019-03-25T13:13:22.974Z,2.30
2019-03-25T13:15:55.334Z,2.40
2019-03-25T13:18:27.921Z,2.50
2019-03-25T13:21:00.336Z,2.90
2019-03-25T13:23:32.928Z,2.20
2019-03-25T13:26:05.757Z,2.50
2019-03-25T13:28:38.116Z,2.30
2019-03-25T13:31:10.819Z,2.50
2019-03-25T13:33:43.309Z,2.50
2019-03-25T13:36:15.720Z,2.37
2019-03-25T13:38:48.157Z,2.50
2019-03-25T13:41:20.689Z,2.83
2019-03-25T13:43:53.075Z,2.70
2019-03-25T13:46:25.476Z,3.40
2019-03-25T13:48:57.819Z,2.87
2019-03-25T13:51:30.226Z,3.13
2019-03-25T13:54:02.709Z,2.90
2019-03-25T13:56:35.141Z,2.70
2019-03-25T13:59:07.527Z,2.33
2019-03-25T14:01:39.944Z,2.40
2019-03-25T14:04:12.371Z,1.90
2019-03-25T14:06:44.789Z,2.80
2019-03-25T14:09:17.219Z,2.23
2019-03-25T14:11:49.677Z,2.60
2019-03-25T14:14:22.120Z,2.57
2019-03-25T14:16:54.591Z,2.50
2019-03-25T14:19:29.179Z,2.73
2019-03-25T14:22:01.075Z,2.70
2019-03-25T14:24:33.475Z,2.03
2019-03-25T14:27:05.877Z,2.20
2019-03-25T14:29:38.262Z,2.90
2019-03-25T14:32:10.703Z,2.07
2019-03-25T14:34:44.961Z,1.73
2019-03-25T14:37:17.147Z,2.10
2019-03-25T14:39:49.485Z,2.50
2019-03-25T14:42:21.911Z,2.50
2019-03-25T14:44:54.399Z,2.20
2019-03-25T14:47:26.956Z,2.20
2019-03-25T14:49:59.329Z,1.90
2019-03-25T14:52:31.746Z,1.77
2019-03-25T14:55:04.124Z,2.07
2019-03-25T14:57:36.551Z,1.77
2019-03-25T15:00:10.460Z,2.40
2019-03-25T15:02:42.869Z,1.90
2019-03-25T15:05:15.850Z,1.80
2019-03-25T15:07:48.246Z,1.60
2019-03-25T15:10:20.766Z,1.70
2019-03-25T15:12:53.217Z,1.60
2019-03-25T15:15:25.715Z,1.30
2019-03-25T15:17:58.311Z,1.80
2019-03-25T15:20:30.703Z,1.57
2019-03-25T15:23:03.103Z,1.60
2019-03-25T15:25:35.567Z,1.60
2019-03-25T15:28:07.951Z,1.60
2019-03-25T15:30:40.453Z,1.73
2019-03-25T15:33:12.879Z,1.53
2019-03-25T15:35:45.352Z,1.80
2019-03-25T15:38:18.838Z,2.10
2019-03-25T15:40:51.266Z,1.73
2019-03-25T15:43:23.677Z,3.30
2019-03-25T15:45:56.066Z,2.20
2019-03-25T15:48:28.449Z,1.83
2019-03-25T15:51:00.904Z,2.00
2019-03-25T15:53:33.348Z,1.70
2019-03-25T15:56:05.893Z,1.27
2019-03-25T15:58:38.279Z,0.87
2019-03-25T16:01:10.676Z,3.10
2019-03-25T16:03:43.059Z,1.80
2019-03-25T16:06:15.546Z,2.43
2019-03-25T16:08:49.201Z,2.27
2019-03-25T16:11:21.715Z,2.13
2019-03-25T16:13:54.245Z,1.93
2019-03-25T16:16:26.727Z,1.87
2019-03-25T16:18:59.157Z,1.90
2019-03-25T16:21:31.539Z,2.47
2019-03-25T16:24:03.966Z,1.60
2019-03-25T16:26:36.353Z,1.70
2019-03-25T16:29:08.804Z,1.73
2019-03-25T16:31:41.232Z,1.40
2019-03-25T16:34:13.743Z,0.70
2019-03-25T16:36:46.133Z,1.03
2019-03-25T16:39:18.758Z,1.10
2019-03-25T16:41:51.116Z,0.90
2019-03-25T16:44:23.551Z,0.60
2019-03-25T16:46:55.918Z,0.50
2019-03-25T16:49:28.309Z,0.70
2019-03-25T16:52:00.703Z,3.90
2019-03-25T16:54:33.091Z,1.10
2019-03-25T16:57:05.573Z,0.70
2019-03-25T16:59:40.476Z,0.80
2019-03-25T17:02:12.089Z,1.90
2019-03-25T17:04:45.505Z,2.40
2019-03-25T17:07:17.919Z,0.83
2019-03-25T17:09:50.659Z,0.80
2019-03-25T17:12:23.096Z,0.60
2019-03-25T17:14:55.473Z,1.60
2019-03-25T17:17:27.884Z,1.67
2019-03-25T17:20:00.413Z,1.10
2019-03-25T17:22:32.817Z,1.10
2019-03-25T17:25:05.341Z,1.10
2019-03-25T17:27:38.088Z,1.00
2019-03-25T17:30:15.287Z,1.40
2019-03-25T17:32:47.722Z,1.13
2019-03-25T17:35:20.255Z,1.50
2019-03-25T17:37:52.676Z,1.83
2019-03-25T17:40:25.167Z,3.00
2019-03-25T17:42:57.666Z,1.93
2019-03-25T17:45:30.101Z,2.00
2019-03-25T17:48:02.656Z,1.80
2019-03-25T17:50:35.217Z,1.83
2019-03-25T17:53:07.588Z,11.77
2019-03-25T17:55:40.017Z,54.80
2019-03-25T17:58:12.431Z,44.30
2019-03-25T18:01:19.149Z,86.83
2019-03-25T18:03:51.563Z,32.50
2019-03-25T18:06:23.958Z,21.57
2019-03-25T18:08:56.352Z,23.70
2019-03-25T18:11:28.843Z,22.10
2019-03-25T18:14:01.385Z,9.90
2019-03-25T18:16:33.854Z,11.60
2019-03-25T18:19:06.642Z,7.73
2019-03-25T18:21:39.104Z,9.50
2019-03-25T18:24:11.505Z,6.07
2019-03-25T18:26:43.998Z,4.17
2019-03-25T18:29:17.163Z,4.57
2019-03-25T18:31:49.670Z,5.10
2019-03-25T18:34:22.101Z,11.87
2019-03-25T18:36:54.537Z,18.33
2019-03-25T18:39:26.914Z,20.43
2019-03-25T18:41:59.311Z,15.67
2019-03-25T18:44:31.723Z,8.03
2019-03-25T18:47:04.112Z,9.27
2019-03-25T18:49:36.521Z,9.43
2019-03-25T18:52:08.949Z,9.70
2019-03-25T18:54:41.350Z,5.60
2019-03-25T18:57:13.972Z,6.17
2019-03-25T18:59:46.375Z,7.37
2019-03-25T19:02:18.788Z,5.73
2019-03-25T19:04:52.227Z,4.60
2019-03-25T19:07:25.780Z,3.60
2019-03-25T19:09:58.289Z,4.40
2019-03-25T19:12:30.712Z,6.10
2019-03-25T19:15:03.193Z,6.37
2019-03-25T19:17:35.756Z,6.30
2019-03-25T19:20:08.188Z,6.73
2019-03-25T19:22:40.612Z,6.13
2019-03-25T19:25:13.028Z,6.07
2019-03-25T19:27:45.455Z,5.87
2019-03-25T19:30:18.837Z,8.50
2019-03-25T19:32:51.283Z,8.37
2019-03-25T19:35:23.687Z,6.90
2019-03-25T19:37:56.140Z,6.57
2019-03-25T19:40:28.565Z,5.87
2019-03-25T19:43:01.066Z,6.00
2019-03-25T19:45:33.604Z,5.57
2019-03-25T19:48:06.328Z,6.00
2019-03-25T19:50:38.839Z,6.00
2019-03-25T19:53:19.049Z,5.27
2019-03-25T19:55:45.362Z,11.30
2019-03-25T19:58:17.836Z,6.70
2019-03-25T20:00:50.272Z,6.97
2019-03-25T20:03:22.695Z,9.23
2019-03-25T20:05:55.091Z,11.80
2019-03-25T20:08:27.562Z,8.50
2019-03-25T20:10:59.957Z,5.30
2019-03-25T20:13:33.338Z,5.90
2019-03-25T20:16:05.715Z,5.00
2019-03-25T20:18:38.261Z,6.20
2019-03-25T20:21:10.704Z,5.70
2019-03-25T20:23:43.185Z,6.77
2019-03-25T20:26:15.568Z,6.00
2019-03-25T20:28:47.964Z,5.50
2019-03-25T20:31:20.384Z,6.00
2019-03-25T20:33:52.857Z,5.20
2019-03-25T20:36:25.452Z,5.70
2019-03-25T20:38:57.853Z,5.73
2019-03-25T20:41:30.419Z,6.90
2019-03-25T20:44:03.011Z,7.90
2019-03-25T20:46:35.442Z,7.47
2019-03-25T20:49:07.923Z,9.00
2019-03-25T20:51:40.430Z,14.03
2019-03-25T20:54:12.798Z,7.30
2019-03-25T20:56:46.289Z,6.73
2019-03-25T20:59:18.776Z,7.40
2019-03-25T21:01:51.203Z,7.83
2019-03-25T21:04:23.567Z,7.00
2019-03-25T21:06:55.987Z,5.77
2019-03-25T21:09:28.459Z,7.53
2019-03-25T21:12:00.879Z,5.80
2019-03-25T21:14:33.295Z,5.03
2019-03-25T21:17:05.751Z,6.70
2019-03-25T21:19:38.116Z,5.43
2019-03-25T21:22:10.648Z,6.40
2019-03-25T21:24:43.045Z,6.30
2019-03-25T21:27:16.562Z,7.53
2019-03-25T21:29:48.966Z,8.87
2019-03-25T21:32:21.493Z,8.70
2019-03-25T21:34:53.916Z,10.63
2019-03-25T21:37:26.342Z,9.90
2019-03-25T21:39:58.879Z,8.47
2019-03-25T21:42:31.251Z,7.90
2019-03-25T21:45:03.746Z,7.20
2019-03-25T21:47:36.322Z,7.97
2019-03-25T21:50:09.117Z,12.40
2019-03-25T21:52:41.591Z,9.10
2019-03-25T21:55:13.981Z,10.50
2019-03-25T21:57:46.511Z,11.23
2019-03-25T22:00:19.533Z,10.23
2019-03-25T22:02:51.947Z,10.67
2019-03-25T22:05:24.394Z,10.47
2019-03-25T22:07:56.785Z,10.00
2019-03-25T22:10:29.186Z,9.97
2019-03-25T22:13:01.556Z,9.30
2019-03-25T22:15:33.951Z,10.40
2019-03-25T22:18:06.340Z,10.07
2019-03-25T22:20:38.738Z,11.87
2019-03-25T22:23:11.135Z,12.23
2019-03-25T22:25:44.997Z,13.03
2019-03-25T22:28:17.381Z,12.70
2019-03-25T22:30:49.801Z,13.33
2019-03-25T22:33:26.024Z,13.43
2019-03-25T22:35:56.284Z,13.27
2019-03-25T22:38:28.657Z,12.83
2019-03-25T22:41:01.056Z,12.80
2019-03-25T22:43:33.452Z,12.80
2019-03-25T22:46:05.863Z,11.60
2019-03-25T22:48:38.243Z,11.70
2019-03-25T22:51:10.665Z,11.43
2019-03-25T22:53:43.031Z,8.70
2019-03-25T22:56:15.418Z,8.70
2019-03-25T22:58:47.853Z,10.53
2019-03-25T23:01:20.243Z,12.33
2019-03-25T23:03:52.651Z,12.03
2019-03-25T23:06:26.098Z,10.70
2019-03-25T23:08:59.464Z,14.50
2019-03-25T23:11:31.897Z,14.70
2019-03-25T23:14:04.451Z,14.17
2019-03-25T23:16:36.846Z,14.10
2019-03-25T23:19:09.226Z,13.10
2019-03-25T23:21:41.617Z,13.87
2019-03-25T23:24:14.030Z,13.70
2019-03-25T23:26:46.489Z,13.30
2019-03-25T23:29:18.985Z,12.97
2019-03-25T23:31:51.382Z,13.40
2019-03-25T23:34:23.818Z,13.60
2019-03-25T23:36:56.320Z,12.97
2019-03-25T23:39:28.680Z,12.67
2019-03-25T23:42:01.362Z,13.70
2019-03-25T23:44:33.726Z,13.80
2019-03-25T23:47:06.196Z,13.00
2019-03-25T23:49:38.567Z,12.47
2019-03-25T23:52:11.056Z,15.93
2019-03-25T23:54:43.415Z,16.57
2019-03-25T23:57:15.809Z,15.20
2019-03-25T23:59:48.161Z,16.10
